To NAV CANADA Home Page Login to a new session Search on AWWS site Feedback and Comments Disclaimer Vers la page française équivalente Tips FAQ What's new on the site To the Forecasts and Observations / NOTAM section To "File a Flight Plan" website Publications and other links Update of the User's profile FIC Telephone Numbers My Weather Data Folder Route Weather Data Regional Weather Data Local Weather Data To the Forecasts and Observations / NOTAM section
Request Generated 05/27/2015 at 17:40:50 UTC . Weather information available at that time is displayed.

METAR/TAF

REPULSE BAY/NU    

METAR CYUT 271700Z 34014G23KT 25SM DRSN FEW030 OVC220 M05/M08 A3006
RMK SC2CS6 SLP180=
METAR CYUT 271600Z 34011G18KT 25SM FEW030 BKN220 M04/M08 A3006 RMK
SC2CS5 SLP182=
METAR CYUT 271500Z 35017KT 25SM DRSN FEW025 BKN220 M05/M09 A3006 RMK
SC1CS5 SLP181=

TAF AMD CYUT 271414Z 2714/2722 34012KT P6SM FEW025 SCT220 TEMPO
2714/2722 5SM -SN BKN020
RMK NXT FCST BY 271900Z=
Your time UTC time
Weather data provided by Environment Canada and NAV CANADA